sensor_id;sensor_type;location;lat;lon;timestamp;P1;durP1;ratioP1;P2;durP2;ratioP2
55692;SDS011;41590;53.366;5.212;2023-06-10T00:08:24;16.40;;;7.47;;
55692;SDS011;41590;53.366;5.212;2023-06-10T00:13:22;17.98;;;7.35;;
55692;SDS011;41590;53.366;5.212;2023-06-10T00:25:39;15.60;;;6.68;;
55692;SDS011;41590;53.366;5.212;2023-06-10T00:45:52;15.82;;;7.55;;
55692;SDS011;41590;53.366;5.212;2023-06-10T00:51:42;13.90;;;7.40;;
55692;SDS011;41590;53.366;5.212;2023-06-10T00:54:32;12.68;;;7.40;;
55692;SDS011;41590;53.366;5.212;2023-06-10T00:57:13;17.35;;;7.80;;
55692;SDS011;41590;53.366;5.212;2023-06-10T00:59:53;15.18;;;7.28;;
55692;SDS011;41590;53.366;5.212;2023-06-10T01:05:35;12.02;;;7.47;;
55692;SDS011;41590;53.366;5.212;2023-06-10T01:10:49;14.93;;;7.07;;
55692;SDS011;41590;53.366;5.212;2023-06-10T01:13:19;17.08;;;7.00;;
55692;SDS011;41590;53.366;5.212;2023-06-10T01:16:05;13.13;;;6.97;;
55692;SDS011;41590;53.366;5.212;2023-06-10T01:21:51;13.23;;;5.68;;
55692;SDS011;41590;53.366;5.212;2023-06-10T01:27:48;11.63;;;5.18;;
55692;SDS011;41590;53.366;5.212;2023-06-10T01:30:29;14.35;;;6.57;;
55692;SDS011;41590;53.366;5.212;2023-06-10T01:32:59;11.65;;;6.10;;
55692;SDS011;41590;53.366;5.212;2023-06-10T01:35:34;12.32;;;6.90;;
55692;SDS011;41590;53.366;5.212;2023-06-10T01:40:46;10.20;;;5.88;;
55692;SDS011;41590;53.366;5.212;2023-06-10T01:52:38;14.38;;;6.53;;
55692;SDS011;41590;53.366;5.212;2023-06-10T01:55:12;12.35;;;7.00;;
55692;SDS011;41590;53.366;5.212;2023-06-10T01:57:55;10.27;;;6.18;;
55692;SDS011;41590;53.366;5.212;2023-06-10T02:00:33;10.35;;;6.50;;
55692;SDS011;41590;53.366;5.212;2023-06-10T02:06:11;12.10;;;5.88;;
55692;SDS011;41590;53.366;5.212;2023-06-10T02:08:53;12.57;;;6.65;;
55692;SDS011;41590;53.366;5.212;2023-06-10T02:11:35;11.75;;;6.60;;
55692;SDS011;41590;53.366;5.212;2023-06-10T02:14:05;12.43;;;6.57;;
55692;SDS011;41590;53.366;5.212;2023-06-10T02:16:35;15.07;;;5.90;;
55692;SDS011;41590;53.366;5.212;2023-06-10T02:19:16;10.60;;;5.88;;
55692;SDS011;41590;53.366;5.212;2023-06-10T02:27:26;13.75;;;6.00;;
55692;SDS011;41590;53.366;5.212;2023-06-10T02:29:57;10.57;;;6.70;;
55692;SDS011;41590;53.366;5.212;2023-06-10T02:35:19;9.60;;;5.20;;
55692;SDS011;41590;53.366;5.212;2023-06-10T02:40:52;12.23;;;6.45;;
55692;SDS011;41590;53.366;5.212;2023-06-10T02:43:22;12.80;;;6.35;;
55692;SDS011;41590;53.366;5.212;2023-06-10T02:45:50;11.05;;;6.43;;
55692;SDS011;41590;53.366;5.212;2023-06-10T02:48:30;11.02;;;5.60;;
55692;SDS011;41590;53.366;5.212;2023-06-10T02:50:59;10.77;;;5.65;;
55692;SDS011;41590;53.366;5.212;2023-06-10T02:53:41;10.45;;;5.68;;
55692;SDS011;41590;53.366;5.212;2023-06-10T02:59:21;12.13;;;5.75;;
55692;SDS011;41590;53.366;5.212;2023-06-10T03:01:58;13.50;;;7.32;;
55692;SDS011;41590;53.366;5.212;2023-06-10T03:09:56;13.43;;;6.90;;
55692;SDS011;41590;53.366;5.212;2023-06-10T03:12:26;10.07;;;6.72;;
55692;SDS011;41590;53.366;5.212;2023-06-10T03:18:10;13.07;;;6.15;;
55692;SDS011;41590;53.366;5.212;2023-06-10T03:23:59;14.40;;;8.40;;
55692;SDS011;41590;53.366;5.212;2023-06-10T03:26:36;11.90;;;6.80;;
55692;SDS011;41590;53.366;5.212;2023-06-10T03:45:03;9.75;;;6.38;;
55692;SDS011;41590;53.366;5.212;2023-06-10T03:47:38;12.45;;;6.93;;
55692;SDS011;41590;53.366;5.212;2023-06-10T03:50:35;10.80;;;6.65;;
55692;SDS011;41590;53.366;5.212;2023-06-10T04:06:32;13.90;;;6.15;;
55692;SDS011;41590;53.366;5.212;2023-06-10T04:09:00;9.52;;;5.88;;
55692;SDS011;41590;53.366;5.212;2023-06-10T04:11:35;13.52;;;6.30;;
55692;SDS011;41590;53.366;5.212;2023-06-10T04:20:28;11.68;;;6.25;;
55692;SDS011;41590;53.366;5.212;2023-06-10T04:26:02;10.80;;;6.20;;
55692;SDS011;41590;53.366;5.212;2023-06-10T04:31:21;8.60;;;6.40;;
55692;SDS011;41590;53.366;5.212;2023-06-10T04:37:26;12.90;;;6.03;;
55692;SDS011;41590;53.366;5.212;2023-06-10T04:47:15;10.15;;;5.78;;
55692;SDS011;41590;53.366;5.212;2023-06-10T04:50:30;13.75;;;6.50;;
55692;SDS011;41590;53.366;5.212;2023-06-10T04:56:30;15.23;;;7.25;;
55692;SDS011;41590;53.366;5.212;2023-06-10T04:59:04;15.90;;;7.68;;
55692;SDS011;41590;53.366;5.212;2023-06-10T05:02:04;14.63;;;6.90;;
55692;SDS011;41590;53.366;5.212;2023-06-10T05:11:11;12.55;;;6.65;;
55692;SDS011;41590;53.366;5.212;2023-06-10T05:17:11;12.45;;;7.38;;
55692;SDS011;41590;53.366;5.212;2023-06-10T05:29:08;12.93;;;6.90;;
55692;SDS011;41590;53.366;5.212;2023-06-10T05:31:58;12.18;;;6.05;;
55692;SDS011;41590;53.366;5.212;2023-06-10T05:41:01;14.77;;;7.22;;
55692;SDS011;41590;53.366;5.212;2023-06-10T05:43:42;16.25;;;7.13;;
55692;SDS011;41590;53.366;5.212;2023-06-10T05:52:36;13.30;;;6.10;;
55692;SDS011;41590;53.366;5.212;2023-06-10T05:58:29;14.30;;;6.40;;
55692;SDS011;41590;53.366;5.212;2023-06-10T06:01:06;10.65;;;4.80;;
55692;SDS011;41590;53.366;5.212;2023-06-10T06:06:19;15.07;;;4.38;;
55692;SDS011;41590;53.366;5.212;2023-06-10T06:12:03;14.90;;;5.50;;
55692;SDS011;41590;53.366;5.212;2023-06-10T06:14:39;13.35;;;5.30;;
55692;SDS011;41590;53.366;5.212;2023-06-10T06:19:58;14.63;;;5.13;;
55692;SDS011;41590;53.366;5.212;2023-06-10T06:22:30;14.80;;;6.28;;
55692;SDS011;41590;53.366;5.212;2023-06-10T06:27:34;11.07;;;6.43;;
55692;SDS011;41590;53.366;5.212;2023-06-10T06:30:01;13.82;;;6.28;;
55692;SDS011;41590;53.366;5.212;2023-06-10T06:32:34;12.98;;;6.18;;
55692;SDS011;41590;53.366;5.212;2023-06-10T06:41:59;11.02;;;5.53;;
55692;SDS011;41590;53.366;5.212;2023-06-10T06:51:00;12.03;;;5.80;;
55692;SDS011;41590;53.366;5.212;2023-06-10T06:53:39;10.60;;;6.07;;
55692;SDS011;41590;53.366;5.212;2023-06-10T06:56:37;12.80;;;5.78;;
55692;SDS011;41590;53.366;5.212;2023-06-10T07:06:01;13.07;;;5.97;;
55692;SDS011;41590;53.366;5.212;2023-06-10T07:09:21;9.68;;;5.70;;
55692;SDS011;41590;53.366;5.212;2023-06-10T07:12:02;13.15;;;6.10;;
55692;SDS011;41590;53.366;5.212;2023-06-10T07:14:34;13.30;;;6.32;;
55692;SDS011;41590;53.366;5.212;2023-06-10T07:17:09;14.77;;;6.15;;
55692;SDS011;41590;53.366;5.212;2023-06-10T07:20:34;12.57;;;5.82;;
55692;SDS011;41590;53.366;5.212;2023-06-10T07:23:36;10.18;;;5.65;;
55692;SDS011;41590;53.366;5.212;2023-06-10T07:26:16;16.17;;;6.07;;
55692;SDS011;41590;53.366;5.212;2023-06-10T07:31:41;11.65;;;6.03;;
55692;SDS011;41590;53.366;5.212;2023-06-10T07:37:16;10.73;;;6.05;;
55692;SDS011;41590;53.366;5.212;2023-06-10T07:39:52;10.02;;;5.35;;
55692;SDS011;41590;53.366;5.212;2023-06-10T07:52:33;14.02;;;5.28;;
55692;SDS011;41590;53.366;5.212;2023-06-10T07:55:04;9.88;;;5.13;;
55692;SDS011;41590;53.366;5.212;2023-06-10T07:57:30;12.07;;;5.20;;
55692;SDS011;41590;53.366;5.212;2023-06-10T07:59:59;9.88;;;5.57;;
55692;SDS011;41590;53.366;5.212;2023-06-10T08:02:37;11.02;;;4.95;;
55692;SDS011;41590;53.366;5.212;2023-06-10T08:15:41;8.52;;;5.10;;
55692;SDS011;41590;53.366;5.212;2023-06-10T08:18:29;12.45;;;5.53;;
55692;SDS011;41590;53.366;5.212;2023-06-10T08:53:31;9.73;;;4.55;;
55692;SDS011;41590;53.366;5.212;2023-06-10T09:06:32;8.20;;;4.30;;
55692;SDS011;41590;53.366;5.212;2023-06-10T09:18:10;9.10;;;4.60;;
55692;SDS011;41590;53.366;5.212;2023-06-10T09:24:45;9.13;;;4.05;;
55692;SDS011;41590;53.366;5.212;2023-06-10T09:30:31;8.73;;;3.72;;
55692;SDS011;41590;53.366;5.212;2023-06-10T09:33:11;8.80;;;4.70;;
55692;SDS011;41590;53.366;5.212;2023-06-10T09:45:49;9.07;;;4.38;;
55692;SDS011;41590;53.366;5.212;2023-06-10T09:48:28;11.18;;;4.22;;
55692;SDS011;41590;53.366;5.212;2023-06-10T09:51:08;8.98;;;4.60;;
55692;SDS011;41590;53.366;5.212;2023-06-10T09:56:40;12.18;;;4.32;;
55692;SDS011;41590;53.366;5.212;2023-06-10T10:04:52;8.85;;;3.72;;
55692;SDS011;41590;53.366;5.212;2023-06-10T10:07:46;9.63;;;3.92;;
55692;SDS011;41590;53.366;5.212;2023-06-10T10:10:27;9.35;;;3.63;;
55692;SDS011;41590;53.366;5.212;2023-06-10T10:13:17;10.52;;;3.78;;
55692;SDS011;41590;53.366;5.212;2023-06-10T10:22:08;8.13;;;3.90;;
55692;SDS011;41590;53.366;5.212;2023-06-10T10:24:38;9.25;;;3.90;;
55692;SDS011;41590;53.366;5.212;2023-06-10T10:27:14;9.20;;;3.80;;
55692;SDS011;41590;53.366;5.212;2023-06-10T10:32:37;8.52;;;3.85;;
55692;SDS011;41590;53.366;5.212;2023-06-10T10:37:57;8.23;;;3.85;;
55692;SDS011;41590;53.366;5.212;2023-06-10T10:40:24;9.80;;;4.25;;
55692;SDS011;41590;53.366;5.212;2023-06-10T10:42:54;9.30;;;3.42;;
55692;SDS011;41590;53.366;5.212;2023-06-10T10:45:22;9.95;;;4.10;;
55692;SDS011;41590;53.366;5.212;2023-06-10T10:50:25;10.90;;;4.45;;
55692;SDS011;41590;53.366;5.212;2023-06-10T10:53:19;8.32;;;3.47;;
55692;SDS011;41590;53.366;5.212;2023-06-10T10:59:04;16.65;;;3.83;;
55692;SDS011;41590;53.366;5.212;2023-06-10T11:01:43;12.27;;;3.78;;
55692;SDS011;41590;53.366;5.212;2023-06-10T11:04:17;19.67;;;4.82;;
55692;SDS011;41590;53.366;5.212;2023-06-10T11:06:53;13.65;;;4.50;;
55692;SDS011;41590;53.366;5.212;2023-06-10T11:09:26;13.73;;;4.85;;
55692;SDS011;41590;53.366;5.212;2023-06-10T11:11:58;15.40;;;4.82;;
55692;SDS011;41590;53.366;5.212;2023-06-10T11:20:08;15.93;;;5.25;;
55692;SDS011;41590;53.366;5.212;2023-06-10T11:41:02;15.15;;;5.97;;
55692;SDS011;41590;53.366;5.212;2023-06-10T11:43:30;15.70;;;5.95;;
55692;SDS011;41590;53.366;5.212;2023-06-10T11:45:56;19.45;;;6.93;;
55692;SDS011;41590;53.366;5.212;2023-06-10T11:48:28;16.35;;;7.00;;
55692;SDS011;41590;53.366;5.212;2023-06-10T11:53:27;11.70;;;5.68;;
55692;SDS011;41590;53.366;5.212;2023-06-10T11:55:53;13.43;;;5.25;;
55692;SDS011;41590;53.366;5.212;2023-06-10T11:58:28;14.40;;;5.85;;
55692;SDS011;41590;53.366;5.212;2023-06-10T12:00:55;18.90;;;6.40;;
55692;SDS011;41590;53.366;5.212;2023-06-10T12:03:28;13.27;;;4.85;;
55692;SDS011;41590;53.366;5.212;2023-06-10T12:06:04;17.88;;;5.85;;
55692;SDS011;41590;53.366;5.212;2023-06-10T12:08:43;13.88;;;5.63;;
55692;SDS011;41590;53.366;5.212;2023-06-10T12:11:11;13.05;;;5.40;;
55692;SDS011;41590;53.366;5.212;2023-06-10T12:14:03;12.05;;;4.85;;
55692;SDS011;41590;53.366;5.212;2023-06-10T12:16:48;13.80;;;5.50;;
55692;SDS011;41590;53.366;5.212;2023-06-10T12:19:27;18.05;;;5.60;;
55692;SDS011;41590;53.366;5.212;2023-06-10T12:25:15;9.63;;;5.28;;
55692;SDS011;41590;53.366;5.212;2023-06-10T12:31:08;11.70;;;5.30;;
55692;SDS011;41590;53.366;5.212;2023-06-10T12:33:47;13.48;;;5.15;;
55692;SDS011;41590;53.366;5.212;2023-06-10T12:41:52;15.65;;;4.80;;
55692;SDS011;41590;53.366;5.212;2023-06-10T12:44:34;12.23;;;4.53;;
55692;SDS011;41590;53.366;5.212;2023-06-10T12:47:08;10.80;;;4.75;;
55692;SDS011;41590;53.366;5.212;2023-06-10T12:49:48;14.00;;;4.78;;
55692;SDS011;41590;53.366;5.212;2023-06-10T12:52:19;11.10;;;4.18;;
55692;SDS011;41590;53.366;5.212;2023-06-10T13:03:13;12.70;;;4.00;;
55692;SDS011;41590;53.366;5.212;2023-06-10T13:11:43;17.02;;;4.00;;
55692;SDS011;41590;53.366;5.212;2023-06-10T13:14:17;15.80;;;4.43;;
55692;SDS011;41590;53.366;5.212;2023-06-10T13:16:53;10.73;;;3.65;;
55692;SDS011;41590;53.366;5.212;2023-06-10T13:19:28;10.65;;;4.18;;
55692;SDS011;41590;53.366;5.212;2023-06-10T13:21:57;14.00;;;4.18;;
55692;SDS011;41590;53.366;5.212;2023-06-10T13:24:38;9.55;;;3.17;;
55692;SDS011;41590;53.366;5.212;2023-06-10T13:27:18;13.73;;;3.85;;
55692;SDS011;41590;53.366;5.212;2023-06-10T13:30:02;13.63;;;3.55;;
55692;SDS011;41590;53.366;5.212;2023-06-10T13:35:54;15.80;;;3.85;;
55692;SDS011;41590;53.366;5.212;2023-06-10T13:38:33;11.07;;;3.33;;
55692;SDS011;41590;53.366;5.212;2023-06-10T13:41:25;9.75;;;3.20;;
55692;SDS011;41590;53.366;5.212;2023-06-10T13:49:44;13.15;;;3.50;;
55692;SDS011;41590;53.366;5.212;2023-06-10T13:52:32;12.68;;;3.15;;
55692;SDS011;41590;53.366;5.212;2023-06-10T13:55:05;8.65;;;2.90;;
55692;SDS011;41590;53.366;5.212;2023-06-10T13:57:37;8.32;;;2.75;;
55692;SDS011;41590;53.366;5.212;2023-06-10T14:02:43;13.30;;;2.97;;
55692;SDS011;41590;53.366;5.212;2023-06-10T14:05:09;21.13;;;4.30;;
55692;SDS011;41590;53.366;5.212;2023-06-10T14:08:00;14.90;;;3.80;;
55692;SDS011;41590;53.366;5.212;2023-06-10T14:10:38;10.05;;;2.72;;
55692;SDS011;41590;53.366;5.212;2023-06-10T14:19:15;12.55;;;2.83;;
55692;SDS011;41590;53.366;5.212;2023-06-10T14:22:04;8.32;;;2.75;;
55692;SDS011;41590;53.366;5.212;2023-06-10T14:27:24;11.68;;;2.75;;
55692;SDS011;41590;53.366;5.212;2023-06-10T14:33:24;6.95;;;2.42;;
55692;SDS011;41590;53.366;5.212;2023-06-10T14:36:37;18.85;;;3.30;;
55692;SDS011;41590;53.366;5.212;2023-06-10T14:49:15;15.00;;;3.72;;
55692;SDS011;41590;53.366;5.212;2023-06-10T14:51:52;14.93;;;4.80;;
55692;SDS011;41590;53.366;5.212;2023-06-10T14:54:37;11.07;;;2.72;;
55692;SDS011;41590;53.366;5.212;2023-06-10T14:57:38;13.90;;;3.08;;
55692;SDS011;41590;53.366;5.212;2023-06-10T15:00:40;10.18;;;2.60;;
55692;SDS011;41590;53.366;5.212;2023-06-10T15:06:15;11.25;;;3.08;;
55692;SDS011;41590;53.366;5.212;2023-06-10T15:09:18;13.77;;;2.83;;
55692;SDS011;41590;53.366;5.212;2023-06-10T15:14:47;15.35;;;2.90;;
55692;SDS011;41590;53.366;5.212;2023-06-10T15:17:28;14.25;;;2.58;;
55692;SDS011;41590;53.366;5.212;2023-06-10T15:25:58;10.25;;;3.03;;
55692;SDS011;41590;53.366;5.212;2023-06-10T15:28:26;11.85;;;2.92;;
55692;SDS011;41590;53.366;5.212;2023-06-10T15:33:46;12.70;;;3.28;;
55692;SDS011;41590;53.366;5.212;2023-06-10T15:36:25;11.27;;;2.63;;
55692;SDS011;41590;53.366;5.212;2023-06-10T15:38:52;11.98;;;2.95;;
55692;SDS011;41590;53.366;5.212;2023-06-10T15:41:28;11.80;;;2.90;;
55692;SDS011;41590;53.366;5.212;2023-06-10T15:44:11;13.35;;;3.00;;
55692;SDS011;41590;53.366;5.212;2023-06-10T15:47:01;11.63;;;2.97;;
55692;SDS011;41590;53.366;5.212;2023-06-10T15:49:29;5.60;;;2.33;;
55692;SDS011;41590;53.366;5.212;2023-06-10T15:51:56;8.95;;;2.78;;
55692;SDS011;41590;53.366;5.212;2023-06-10T15:54:30;8.38;;;2.95;;
55692;SDS011;41590;53.366;5.212;2023-06-10T15:57:03;9.45;;;2.55;;
55692;SDS011;41590;53.366;5.212;2023-06-10T15:59:31;11.43;;;3.47;;
55692;SDS011;41590;53.366;5.212;2023-06-10T16:04:50;8.25;;;2.75;;
55692;SDS011;41590;53.366;5.212;2023-06-10T16:07:35;9.60;;;2.28;;
55692;SDS011;41590;53.366;5.212;2023-06-10T16:16:19;13.45;;;3.17;;
55692;SDS011;41590;53.366;5.212;2023-06-10T16:18:45;12.77;;;2.88;;
55692;SDS011;41590;53.366;5.212;2023-06-10T16:33:39;10.30;;;3.60;;
55692;SDS011;41590;53.366;5.212;2023-06-10T16:36:14;9.80;;;2.83;;
55692;SDS011;41590;53.366;5.212;2023-06-10T16:38:42;12.02;;;3.05;;
55692;SDS011;41590;53.366;5.212;2023-06-10T16:41:09;15.07;;;3.42;;
55692;SDS011;41590;53.366;5.212;2023-06-10T16:43:41;10.63;;;3.05;;
55692;SDS011;41590;53.366;5.212;2023-06-10T16:46:11;16.83;;;2.75;;
55692;SDS011;41590;53.366;5.212;2023-06-10T16:48:38;9.05;;;2.50;;
55692;SDS011;41590;53.366;5.212;2023-06-10T16:51:07;10.60;;;3.20;;
55692;SDS011;41590;53.366;5.212;2023-06-10T16:53:41;11.68;;;3.63;;
55692;SDS011;41590;53.366;5.212;2023-06-10T16:56:12;12.00;;;2.70;;
55692;SDS011;41590;53.366;5.212;2023-06-10T16:58:38;7.45;;;2.63;;
55692;SDS011;41590;53.366;5.212;2023-06-10T17:06:27;12.07;;;2.65;;
55692;SDS011;41590;53.366;5.212;2023-06-10T17:08:54;10.25;;;3.22;;
55692;SDS011;41590;53.366;5.212;2023-06-10T17:11:20;12.40;;;3.25;;
55692;SDS011;41590;53.366;5.212;2023-06-10T17:13:46;10.02;;;2.83;;
55692;SDS011;41590;53.366;5.212;2023-06-10T17:16:25;13.57;;;3.03;;
55692;SDS011;41590;53.366;5.212;2023-06-10T17:18:52;9.95;;;2.85;;
55692;SDS011;41590;53.366;5.212;2023-06-10T17:21:20;14.45;;;3.08;;
55692;SDS011;41590;53.366;5.212;2023-06-10T17:23:54;15.93;;;3.10;;
55692;SDS011;41590;53.366;5.212;2023-06-10T17:26:20;10.60;;;2.80;;
55692;SDS011;41590;53.366;5.212;2023-06-10T17:28:50;12.73;;;3.08;;
55692;SDS011;41590;53.366;5.212;2023-06-10T17:33:50;11.88;;;3.00;;
55692;SDS011;41590;53.366;5.212;2023-06-10T17:36:18;11.90;;;2.70;;
55692;SDS011;41590;53.366;5.212;2023-06-10T17:38:49;10.13;;;3.13;;
55692;SDS011;41590;53.366;5.212;2023-06-10T17:41:16;9.38;;;3.80;;
55692;SDS011;41590;53.366;5.212;2023-06-10T17:43:45;11.65;;;3.22;;
55692;SDS011;41590;53.366;5.212;2023-06-10T17:46:12;9.95;;;3.13;;
55692;SDS011;41590;53.366;5.212;2023-06-10T17:48:39;9.18;;;2.80;;
55692;SDS011;41590;53.366;5.212;2023-06-10T17:51:07;9.73;;;3.20;;
55692;SDS011;41590;53.366;5.212;2023-06-10T17:53:33;8.50;;;2.90;;
55692;SDS011;41590;53.366;5.212;2023-06-10T17:55:59;10.88;;;2.95;;
55692;SDS011;41590;53.366;5.212;2023-06-10T17:58:26;12.18;;;3.13;;
55692;SDS011;41590;53.366;5.212;2023-06-10T18:00:53;9.60;;;2.85;;
55692;SDS011;41590;53.366;5.212;2023-06-10T18:03:20;9.60;;;3.05;;
55692;SDS011;41590;53.366;5.212;2023-06-10T18:05:54;10.40;;;3.15;;
55692;SDS011;41590;53.366;5.212;2023-06-10T18:08:21;8.18;;;2.90;;
55692;SDS011;41590;53.366;5.212;2023-06-10T18:10:50;10.73;;;3.05;;
55692;SDS011;41590;53.366;5.212;2023-06-10T18:13:26;10.60;;;2.58;;
55692;SDS011;41590;53.366;5.212;2023-06-10T18:16:02;11.05;;;2.80;;
55692;SDS011;41590;53.366;5.212;2023-06-10T18:18:34;11.88;;;3.35;;
55692;SDS011;41590;53.366;5.212;2023-06-10T18:24:26;7.32;;;2.30;;
55692;SDS011;41590;53.366;5.212;2023-06-10T18:26:53;13.25;;;2.78;;
55692;SDS011;41590;53.366;5.212;2023-06-10T18:29:23;11.88;;;3.00;;
55692;SDS011;41590;53.366;5.212;2023-06-10T18:31:54;12.10;;;2.75;;
55692;SDS011;41590;53.366;5.212;2023-06-10T18:34:40;12.25;;;2.65;;
55692;SDS011;41590;53.366;5.212;2023-06-10T18:42:59;15.48;;;2.58;;
55692;SDS011;41590;53.366;5.212;2023-06-10T18:45:44;9.15;;;2.53;;
55692;SDS011;41590;53.366;5.212;2023-06-10T18:51:37;15.02;;;3.25;;
55692;SDS011;41590;53.366;5.212;2023-06-10T18:54:08;13.63;;;3.15;;
55692;SDS011;41590;53.366;5.212;2023-06-10T19:00:12;12.93;;;2.95;;
55692;SDS011;41590;53.366;5.212;2023-06-10T19:02:40;9.13;;;2.83;;
55692;SDS011;41590;53.366;5.212;2023-06-10T19:05:07;11.50;;;2.50;;
55692;SDS011;41590;53.366;5.212;2023-06-10T19:10:34;12.02;;;2.78;;
55692;SDS011;41590;53.366;5.212;2023-06-10T19:13:16;13.50;;;2.88;;
55692;SDS011;41590;53.366;5.212;2023-06-10T19:15:42;6.88;;;2.53;;
55692;SDS011;41590;53.366;5.212;2023-06-10T19:18:15;11.52;;;2.90;;
55692;SDS011;41590;53.366;5.212;2023-06-10T19:20:48;12.55;;;3.08;;
55692;SDS011;41590;53.366;5.212;2023-06-10T19:25:54;12.23;;;2.63;;
55692;SDS011;41590;53.366;5.212;2023-06-10T19:28:35;9.02;;;3.22;;
55692;SDS011;41590;53.366;5.212;2023-06-10T19:33:34;12.38;;;2.92;;
55692;SDS011;41590;53.366;5.212;2023-06-10T19:36:10;18.70;;;3.47;;
55692;SDS011;41590;53.366;5.212;2023-06-10T19:38:39;14.43;;;3.42;;
55692;SDS011;41590;53.366;5.212;2023-06-10T19:41:11;10.63;;;2.92;;
55692;SDS011;41590;53.366;5.212;2023-06-10T19:43:46;9.77;;;2.75;;
55692;SDS011;41590;53.366;5.212;2023-06-10T19:46:15;11.10;;;2.55;;
55692;SDS011;41590;53.366;5.212;2023-06-10T19:51:21;11.18;;;2.95;;
55692;SDS011;41590;53.366;5.212;2023-06-10T19:53:50;10.18;;;3.10;;
55692;SDS011;41590;53.366;5.212;2023-06-10T19:58:54;13.27;;;3.42;;
55692;SDS011;41590;53.366;5.212;2023-06-10T20:04:46;12.93;;;3.00;;
55692;SDS011;41590;53.366;5.212;2023-06-10T20:10:35;12.23;;;3.20;;
55692;SDS011;41590;53.366;5.212;2023-06-10T20:16:35;11.20;;;3.33;;
55692;SDS011;41590;53.366;5.212;2023-06-10T20:22:06;10.27;;;3.58;;
55692;SDS011;41590;53.366;5.212;2023-06-10T20:24:43;11.73;;;3.25;;
55692;SDS011;41590;53.366;5.212;2023-06-10T20:39:39;10.73;;;4.13;;
55692;SDS011;41590;53.366;5.212;2023-06-10T20:42:09;11.35;;;3.65;;
55692;SDS011;41590;53.366;5.212;2023-06-10T20:44:37;14.98;;;4.22;;
55692;SDS011;41590;53.366;5.212;2023-06-10T20:47:17;20.88;;;4.38;;
55692;SDS011;41590;53.366;5.212;2023-06-10T20:49:43;7.75;;;3.38;;
55692;SDS011;41590;53.366;5.212;2023-06-10T20:52:14;12.88;;;3.88;;
55692;SDS011;41590;53.366;5.212;2023-06-10T20:54:48;13.15;;;3.90;;
55692;SDS011;41590;53.366;5.212;2023-06-10T20:57:22;11.68;;;4.07;;
55692;SDS011;41590;53.366;5.212;2023-06-10T20:59:49;13.93;;;3.85;;
55692;SDS011;41590;53.366;5.212;2023-06-10T21:04:46;16.80;;;4.30;;
55692;SDS011;41590;53.366;5.212;2023-06-10T21:07:12;13.85;;;4.10;;
55692;SDS011;41590;53.366;5.212;2023-06-10T21:09:39;12.48;;;4.00;;
55692;SDS011;41590;53.366;5.212;2023-06-10T21:12:05;16.42;;;4.00;;
55692;SDS011;41590;53.366;5.212;2023-06-10T21:14:34;11.48;;;3.63;;
55692;SDS011;41590;53.366;5.212;2023-06-10T21:17:15;14.70;;;4.25;;
55692;SDS011;41590;53.366;5.212;2023-06-10T21:19:42;13.07;;;3.58;;
55692;SDS011;41590;53.366;5.212;2023-06-10T21:22:24;10.82;;;4.05;;
55692;SDS011;41590;53.366;5.212;2023-06-10T21:25:03;12.52;;;4.00;;
55692;SDS011;41590;53.366;5.212;2023-06-10T21:28:00;12.82;;;4.07;;
55692;SDS011;41590;53.366;5.212;2023-06-10T21:30:27;15.18;;;4.90;;
55692;SDS011;41590;53.366;5.212;2023-06-10T21:33:02;11.07;;;4.05;;
55692;SDS011;41590;53.366;5.212;2023-06-10T21:35:33;19.45;;;4.50;;
55692;SDS011;41590;53.366;5.212;2023-06-10T21:37:59;11.18;;;4.18;;
55692;SDS011;41590;53.366;5.212;2023-06-10T21:40:43;15.80;;;3.88;;
55692;SDS011;41590;53.366;5.212;2023-06-10T21:46:08;12.95;;;4.60;;
55692;SDS011;41590;53.366;5.212;2023-06-10T21:48:38;18.23;;;5.00;;
55692;SDS011;41590;53.366;5.212;2023-06-10T21:51:06;12.90;;;4.15;;
55692;SDS011;41590;53.366;5.212;2023-06-10T21:53:46;12.07;;;4.50;;
55692;SDS011;41590;53.366;5.212;2023-06-10T21:56:12;15.93;;;4.70;;
55692;SDS011;41590;53.366;5.212;2023-06-10T21:58:39;12.00;;;4.28;;
55692;SDS011;41590;53.366;5.212;2023-06-10T22:01:15;13.70;;;4.05;;
55692;SDS011;41590;53.366;5.212;2023-06-10T22:03:41;13.27;;;4.55;;
55692;SDS011;41590;53.366;5.212;2023-06-10T22:06:10;11.57;;;4.38;;
55692;SDS011;41590;53.366;5.212;2023-06-10T22:08:43;9.75;;;4.25;;
55692;SDS011;41590;53.366;5.212;2023-06-10T22:11:19;15.02;;;4.60;;
55692;SDS011;41590;53.366;5.212;2023-06-10T22:13:45;12.32;;;5.00;;
55692;SDS011;41590;53.366;5.212;2023-06-10T22:16:17;11.13;;;4.20;;
55692;SDS011;41590;53.366;5.212;2023-06-10T22:18:53;14.05;;;4.30;;
55692;SDS011;41590;53.366;5.212;2023-06-10T22:21:32;15.95;;;5.03;;
55692;SDS011;41590;53.366;5.212;2023-06-10T22:26:54;16.95;;;4.95;;
55692;SDS011;41590;53.366;5.212;2023-06-10T22:29:23;12.75;;;4.78;;
55692;SDS011;41590;53.366;5.212;2023-06-10T22:31:49;15.98;;;4.50;;
55692;SDS011;41590;53.366;5.212;2023-06-10T22:34:18;18.33;;;4.88;;
55692;SDS011;41590;53.366;5.212;2023-06-10T22:36:44;14.50;;;5.07;;
55692;SDS011;41590;53.366;5.212;2023-06-10T22:39:17;16.67;;;5.33;;
55692;SDS011;41590;53.366;5.212;2023-06-10T22:41:53;18.50;;;5.45;;
55692;SDS011;41590;53.366;5.212;2023-06-10T22:44:21;16.10;;;5.43;;
55692;SDS011;41590;53.366;5.212;2023-06-10T22:46:47;9.80;;;5.05;;
55692;SDS011;41590;53.366;5.212;2023-06-10T22:49:14;16.27;;;5.55;;
55692;SDS011;41590;53.366;5.212;2023-06-10T22:51:40;14.85;;;5.28;;
55692;SDS011;41590;53.366;5.212;2023-06-10T22:54:09;12.02;;;5.20;;
55692;SDS011;41590;53.366;5.212;2023-06-10T22:59:33;14.25;;;4.55;;
55692;SDS011;41590;53.366;5.212;2023-06-10T23:02:06;14.90;;;5.65;;
55692;SDS011;41590;53.366;5.212;2023-06-10T23:04:32;13.07;;;5.82;;
55692;SDS011;41590;53.366;5.212;2023-06-10T23:06:59;19.25;;;5.65;;
55692;SDS011;41590;53.366;5.212;2023-06-10T23:09:25;17.45;;;5.68;;
55692;SDS011;41590;53.366;5.212;2023-06-10T23:11:51;14.73;;;5.82;;
55692;SDS011;41590;53.366;5.212;2023-06-10T23:14:19;13.82;;;5.18;;
55692;SDS011;41590;53.366;5.212;2023-06-10T23:16:45;14.88;;;5.47;;
55692;SDS011;41590;53.366;5.212;2023-06-10T23:19:14;16.13;;;5.47;;
55692;SDS011;41590;53.366;5.212;2023-06-10T23:21:48;16.42;;;6.40;;
55692;SDS011;41590;53.366;5.212;2023-06-10T23:24:24;14.52;;;5.60;;
55692;SDS011;41590;53.366;5.212;2023-06-10T23:26:56;16.35;;;6.20;;
55692;SDS011;41590;53.366;5.212;2023-06-10T23:29:24;13.30;;;5.75;;
55692;SDS011;41590;53.366;5.212;2023-06-10T23:31:51;15.75;;;6.00;;
55692;SDS011;41590;53.366;5.212;2023-06-10T23:34:20;16.92;;;6.47;;
55692;SDS011;41590;53.366;5.212;2023-06-10T23:36:46;18.70;;;6.40;;
55692;SDS011;41590;53.366;5.212;2023-06-10T23:39:13;16.50;;;6.05;;
55692;SDS011;41590;53.366;5.212;2023-06-10T23:41:44;20.35;;;6.57;;
55692;SDS011;41590;53.366;5.212;2023-06-10T23:44:16;15.05;;;5.80;;
55692;SDS011;41590;53.366;5.212;2023-06-10T23:46:43;13.48;;;5.80;;
55692;SDS011;41590;53.366;5.212;2023-06-10T23:49:10;18.95;;;5.47;;
55692;SDS011;41590;53.366;5.212;2023-06-10T23:56:57;17.40;;;5.68;;
55692;SDS011;41590;53.366;5.212;2023-06-10T23:59:24;15.15;;;5.38;;
